sensor_id;sensor_type;location;lat;lon;timestamp;pressure;altitude;pressure_sealevel;temperature;humidity
58245;BME280;44550;43.864;25.986;2023-12-22T00:21:35;99531.59;;;4.00;100.00
58245;BME280;44550;43.864;25.986;2023-12-22T00:27:14;99526.78;;;4.27;100.00
58245;BME280;44550;43.864;25.986;2023-12-22T00:38:13;99521.84;;;4.45;100.00
58245;BME280;44550;43.864;25.986;2023-12-22T00:48:11;99491.16;;;4.04;100.00
58245;BME280;44550;43.864;25.986;2023-12-22T00:53:45;99458.88;;;3.74;100.00
58245;BME280;44550;43.864;25.986;2023-12-22T00:58:37;99452.88;;;3.80;100.00
58245;BME280;44550;43.864;25.986;2023-12-22T01:03:44;99464.53;;;4.14;100.00
58245;BME280;44550;43.864;25.986;2023-12-22T01:14:08;99427.47;;;4.15;100.00
58245;BME280;44550;43.864;25.986;2023-12-22T01:19:21;99404.84;;;3.99;100.00
58245;BME280;44550;43.864;25.986;2023-12-22T01:24:32;99385.00;;;3.96;100.00
58245;BME280;44550;43.864;25.986;2023-12-22T01:35:01;99244.72;;;3.37;100.00
58245;BME280;44550;43.864;25.986;2023-12-22T01:39:56;99288.25;;;3.76;100.00
58245;BME280;44550;43.864;25.986;2023-12-22T01:50:24;99315.28;;;4.07;100.00
58245;BME280;44550;43.864;25.986;2023-12-22T01:55:19;99304.13;;;4.11;100.00
58245;BME280;44550;43.864;25.986;2023-12-22T02:00:02;99296.44;;;4.17;100.00
58245;BME280;44550;43.864;25.986;2023-12-22T02:04:25;99281.84;;;4.29;100.00
58245;BME280;44550;43.864;25.986;2023-12-22T02:09:30;99294.16;;;4.56;100.00
58245;BME280;44550;43.864;25.986;2023-12-22T02:23:55;99283.66;;;4.39;100.00
58245;BME280;44550;43.864;25.986;2023-12-22T02:28:18;99265.56;;;4.39;100.00
58245;BME280;44550;43.864;25.986;2023-12-22T02:32:46;99259.50;;;4.35;100.00
58245;BME280;44550;43.864;25.986;2023-12-22T02:37:07;99247.47;;;4.46;100.00
58245;BME280;44550;43.864;25.986;2023-12-22T02:41:35;99260.50;;;4.56;100.00
58245;BME280;44550;43.864;25.986;2023-12-22T02:45:59;99260.53;;;4.63;100.00
58245;BME280;44550;43.864;25.986;2023-12-22T02:50:31;99264.09;;;4.79;100.00
58245;BME280;44550;43.864;25.986;2023-12-22T02:54:47;99271.97;;;4.91;100.00
58245;BME280;44550;43.864;25.986;2023-12-22T02:59:22;99247.75;;;4.89;100.00
58245;BME280;44550;43.864;25.986;2023-12-22T03:04:04;99264.31;;;5.16;100.00
58245;BME280;44550;43.864;25.986;2023-12-22T03:08:38;99249.59;;;5.09;100.00
58245;BME280;44550;43.864;25.986;2023-12-22T03:12:56;99262.56;;;5.10;100.00
58245;BME280;44550;43.864;25.986;2023-12-22T03:17:43;99252.34;;;5.44;100.00
58245;BME280;44550;43.864;25.986;2023-12-22T03:21:58;99246.38;;;5.67;99.59
58245;BME280;44550;43.864;25.986;2023-12-22T03:26:23;99215.22;;;5.54;98.15
58245;BME280;44550;43.864;25.986;2023-12-22T03:30:48;99237.63;;;5.38;98.66
58245;BME280;44550;43.864;25.986;2023-12-22T03:35:04;99176.91;;;4.77;100.00
58245;BME280;44550;43.864;25.986;2023-12-22T03:39:36;99240.16;;;5.17;100.00
58245;BME280;44550;43.864;25.986;2023-12-22T03:44:15;99234.94;;;5.11;99.96
58245;BME280;44550;43.864;25.986;2023-12-22T03:49:00;99235.75;;;5.02;100.00
58245;BME280;44550;43.864;25.986;2023-12-22T03:53:57;99221.09;;;5.06;100.00
58245;BME280;44550;43.864;25.986;2023-12-22T03:58:44;99199.53;;;5.13;100.00
58245;BME280;44550;43.864;25.986;2023-12-22T04:08:23;99206.50;;;5.29;99.62
58245;BME280;44550;43.864;25.986;2023-12-22T04:12:41;99218.69;;;5.65;98.62
58245;BME280;44550;43.864;25.986;2023-12-22T04:17:07;99208.41;;;5.93;97.48
58245;BME280;44550;43.864;25.986;2023-12-22T04:21:37;99211.00;;;6.30;95.75
58245;BME280;44550;43.864;25.986;2023-12-22T04:26:27;99205.81;;;6.36;94.10
58245;BME280;44550;43.864;25.986;2023-12-22T04:31:11;99215.28;;;6.65;93.32
58245;BME280;44550;43.864;25.986;2023-12-22T04:35:26;99195.38;;;6.64;91.67
58245;BME280;44550;43.864;25.986;2023-12-22T04:39:33;99111.50;;;5.73;93.23
58245;BME280;44550;43.864;25.986;2023-12-22T04:43:35;99190.22;;;5.90;95.22
58245;BME280;44550;43.864;25.986;2023-12-22T04:47:48;99191.06;;;5.74;96.27
58245;BME280;44550;43.864;25.986;2023-12-22T04:51:50;99100.22;;;5.14;96.76
58245;BME280;44550;43.864;25.986;2023-12-22T04:56:06;99177.16;;;5.36;98.02
58245;BME280;44550;43.864;25.986;2023-12-22T05:00:54;99171.13;;;5.59;97.14
58245;BME280;44550;43.864;25.986;2023-12-22T05:05:27;99148.66;;;5.55;96.29
58245;BME280;44550;43.864;25.986;2023-12-22T05:09:53;99165.09;;;5.64;95.52
58245;BME280;44550;43.864;25.986;2023-12-22T05:14:04;99157.28;;;5.45;96.23
58245;BME280;44550;43.864;25.986;2023-12-22T05:18:40;99164.25;;;5.81;95.58
58245;BME280;44550;43.864;25.986;2023-12-22T05:23:22;99108.06;;;5.83;93.92
58245;BME280;44550;43.864;25.986;2023-12-22T05:27:54;99166.03;;;6.17;96.74
58245;BME280;44550;43.864;25.986;2023-12-22T05:32:36;99128.81;;;5.92;97.87
58245;BME280;44550;43.864;25.986;2023-12-22T05:37:04;99167.72;;;5.84;98.17
58245;BME280;44550;43.864;25.986;2023-12-22T05:41:21;99165.97;;;5.47;100.00
58245;BME280;44550;43.864;25.986;2023-12-22T05:46:06;99164.19;;;5.35;100.00
58245;BME280;44550;43.864;25.986;2023-12-22T05:50:33;99156.38;;;5.23;100.00
58245;BME280;44550;43.864;25.986;2023-12-22T05:54:49;99153.66;;;4.84;100.00
58245;BME280;44550;43.864;25.986;2023-12-22T05:59:45;99146.69;;;4.72;100.00
58245;BME280;44550;43.864;25.986;2023-12-22T06:03:58;99068.78;;;4.19;100.00
58245;BME280;44550;43.864;25.986;2023-12-22T06:08:16;99140.69;;;4.86;100.00
58245;BME280;44550;43.864;25.986;2023-12-22T06:12:47;99136.41;;;4.92;100.00
58245;BME280;44550;43.864;25.986;2023-12-22T06:22:30;99136.53;;;5.20;100.00
58245;BME280;44550;43.864;25.986;2023-12-22T06:26:51;99077.72;;;5.02;100.00
58245;BME280;44550;43.864;25.986;2023-12-22T06:31:20;99114.03;;;5.14;100.00
58245;BME280;44550;43.864;25.986;2023-12-22T06:35:29;99037.06;;;4.66;100.00
58245;BME280;44550;43.864;25.986;2023-12-22T06:39:50;99090.72;;;5.14;100.00
58245;BME280;44550;43.864;25.986;2023-12-22T06:44:18;99097.69;;;5.34;100.00
58245;BME280;44550;43.864;25.986;2023-12-22T06:48:28;99069.16;;;5.61;100.00
58245;BME280;44550;43.864;25.986;2023-12-22T06:57:32;99099.41;;;5.55;98.54
58245;BME280;44550;43.864;25.986;2023-12-22T07:01:52;99076.06;;;5.49;97.00
58245;BME280;44550;43.864;25.986;2023-12-22T07:06:36;99084.72;;;5.68;96.09
58245;BME280;44550;43.864;25.986;2023-12-22T07:11:06;99072.63;;;5.80;93.63
58245;BME280;44550;43.864;25.986;2023-12-22T07:15:57;99050.97;;;5.89;92.22
58245;BME280;44550;43.864;25.986;2023-12-22T07:20:27;99048.38;;;6.17;92.13
58245;BME280;44550;43.864;25.986;2023-12-22T07:24:46;99088.06;;;6.51;90.49
58245;BME280;44550;43.864;25.986;2023-12-22T07:34:16;99092.31;;;6.69;88.84
58245;BME280;44550;43.864;25.986;2023-12-22T07:38:43;99101.00;;;6.62;90.30
58245;BME280;44550;43.864;25.986;2023-12-22T07:42:49;99099.25;;;6.68;90.57
58245;BME280;44550;43.864;25.986;2023-12-22T07:46:59;99074.19;;;6.63;91.41
58245;BME280;44550;43.864;25.986;2023-12-22T07:51:20;99115.66;;;6.82;91.61
58245;BME280;44550;43.864;25.986;2023-12-22T07:55:49;99118.34;;;6.63;92.80
58245;BME280;44550;43.864;25.986;2023-12-22T08:00:49;99092.44;;;6.41;95.31
58245;BME280;44550;43.864;25.986;2023-12-22T08:05:15;99100.22;;;6.44;96.03
58245;BME280;44550;43.864;25.986;2023-12-22T08:09:31;99088.91;;;6.54;96.36
58245;BME280;44550;43.864;25.986;2023-12-22T08:13:38;99092.31;;;6.73;96.03
58245;BME280;44550;43.864;25.986;2023-12-22T08:17:48;99078.28;;;7.08;95.83
58245;BME280;44550;43.864;25.986;2023-12-22T08:22:08;99068.41;;;7.58;93.90
58245;BME280;44550;43.864;25.986;2023-12-22T08:26:51;99086.28;;;7.94;92.03
58245;BME280;44550;43.864;25.986;2023-12-22T08:31:11;99049.56;;;8.25;90.71
58245;BME280;44550;43.864;25.986;2023-12-22T08:35:47;99066.78;;;8.41;90.47
58245;BME280;44550;43.864;25.986;2023-12-22T08:39:55;99054.09;;;8.85;89.30
58245;BME280;44550;43.864;25.986;2023-12-22T08:44:21;99026.88;;;9.03;87.10
58245;BME280;44550;43.864;25.986;2023-12-22T08:48:35;99015.94;;;8.79;86.65
58245;BME280;44550;43.864;25.986;2023-12-22T08:52:43;99027.06;;;8.90;87.51
58245;BME280;44550;43.864;25.986;2023-12-22T08:56:52;99021.81;;;8.93;86.99
58245;BME280;44550;43.864;25.986;2023-12-22T09:00:57;99015.59;;;9.02;85.71
58245;BME280;44550;43.864;25.986;2023-12-22T09:05:13;98942.09;;;8.77;85.80
58245;BME280;44550;43.864;25.986;2023-12-22T09:09:39;99002.13;;;9.30;83.44
58245;BME280;44550;43.864;25.986;2023-12-22T09:14:04;98988.91;;;9.42;82.68
58245;BME280;44550;43.864;25.986;2023-12-22T09:18:34;98998.28;;;9.54;81.81
58245;BME280;44550;43.864;25.986;2023-12-22T09:23:01;99018.13;;;9.64;82.26
58245;BME280;44550;43.864;25.986;2023-12-22T09:27:20;99017.34;;;9.57;82.77
58245;BME280;44550;43.864;25.986;2023-12-22T09:32:13;99027.84;;;9.54;84.16
58245;BME280;44550;43.864;25.986;2023-12-22T09:36:35;98989.28;;;9.19;86.62
58245;BME280;44550;43.864;25.986;2023-12-22T09:40:46;99052.38;;;9.44;87.69
58245;BME280;44550;43.864;25.986;2023-12-22T09:45:00;99056.63;;;9.48;88.75
58245;BME280;44550;43.864;25.986;2023-12-22T09:49:21;99050.47;;;9.52;89.38
58245;BME280;44550;43.864;25.986;2023-12-22T09:54:18;99033.97;;;9.52;89.09
58245;BME280;44550;43.864;25.986;2023-12-22T09:58:55;99062.59;;;9.56;88.82
58245;BME280;44550;43.864;25.986;2023-12-22T10:03:16;99038.66;;;9.31;89.86
58245;BME280;44550;43.864;25.986;2023-12-22T10:07:35;99056.41;;;9.62;90.04
58245;BME280;44550;43.864;25.986;2023-12-22T10:12:06;99020.06;;;9.50;90.23
58245;BME280;44550;43.864;25.986;2023-12-22T10:16:40;99006.84;;;9.62;91.32
58245;BME280;44550;43.864;25.986;2023-12-22T10:20:59;99034.09;;;9.44;93.50
58245;BME280;44550;43.864;25.986;2023-12-22T10:25:28;99027.34;;;9.29;94.82
58245;BME280;44550;43.864;25.986;2023-12-22T10:30:12;99018.13;;;9.62;93.05
58245;BME280;44550;43.864;25.986;2023-12-22T10:34:32;98908.94;;;9.41;91.36
58245;BME280;44550;43.864;25.986;2023-12-22T10:39:08;99016.66;;;9.48;93.46
58245;BME280;44550;43.864;25.986;2023-12-22T10:43:25;99026.13;;;9.52;94.16
58245;BME280;44550;43.864;25.986;2023-12-22T10:48:13;98988.94;;;9.40;94.55
58245;BME280;44550;43.864;25.986;2023-12-22T10:53:05;99023.63;;;9.46;94.36
58245;BME280;44550;43.864;25.986;2023-12-22T10:57:55;99005.31;;;9.49;96.38
58245;BME280;44550;43.864;25.986;2023-12-22T11:02:52;98979.84;;;9.63;96.34
58245;BME280;44550;43.864;25.986;2023-12-22T11:07:33;98978.41;;;9.45;97.00
58245;BME280;44550;43.864;25.986;2023-12-22T11:11:51;98976.19;;;9.22;100.00
58245;BME280;44550;43.864;25.986;2023-12-22T11:16:31;98987.59;;;9.15;100.00
58245;BME280;44550;43.864;25.986;2023-12-22T11:20:41;98982.47;;;9.09;100.00
58245;BME280;44550;43.864;25.986;2023-12-22T11:25:11;98994.63;;;9.11;100.00
58245;BME280;44550;43.864;25.986;2023-12-22T11:29:36;98990.34;;;9.06;100.00
58245;BME280;44550;43.864;25.986;2023-12-22T11:39:25;98942.28;;;8.68;100.00
58245;BME280;44550;43.864;25.986;2023-12-22T11:44:04;98998.81;;;9.22;100.00
58245;BME280;44550;43.864;25.986;2023-12-22T11:48:27;98998.94;;;9.12;100.00
58245;BME280;44550;43.864;25.986;2023-12-22T11:52:38;98991.19;;;9.08;100.00
58245;BME280;44550;43.864;25.986;2023-12-22T11:57:02;98980.97;;;8.94;100.00
58245;BME280;44550;43.864;25.986;2023-12-22T12:01:14;98966.38;;;8.82;100.00
58245;BME280;44550;43.864;25.986;2023-12-22T12:05:45;98977.69;;;8.81;100.00
58245;BME280;44550;43.864;25.986;2023-12-22T12:09:54;98974.34;;;8.70;100.00
58245;BME280;44550;43.864;25.986;2023-12-22T12:14:22;98984.69;;;8.76;100.00
58245;BME280;44550;43.864;25.986;2023-12-22T12:18:32;98978.66;;;8.73;100.00
58245;BME280;44550;43.864;25.986;2023-12-22T12:22:42;98993.31;;;8.81;100.00
58245;BME280;44550;43.864;25.986;2023-12-22T12:26:57;99012.19;;;8.97;100.00
58245;BME280;44550;43.864;25.986;2023-12-22T12:35:43;98994.91;;;8.90;100.00
58245;BME280;44550;43.864;25.986;2023-12-22T12:44:44;98997.47;;;8.94;100.00
58245;BME280;44550;43.864;25.986;2023-12-22T12:49:04;98980.28;;;8.80;100.00
58245;BME280;44550;43.864;25.986;2023-12-22T12:53:35;99001.66;;;9.05;100.00
58245;BME280;44550;43.864;25.986;2023-12-22T12:58:01;99014.56;;;9.14;100.00
58245;BME280;44550;43.864;25.986;2023-12-22T13:02:36;99018.81;;;9.21;100.00
58245;BME280;44550;43.864;25.986;2023-12-22T13:07:26;99001.41;;;9.20;100.00
58245;BME280;44550;43.864;25.986;2023-12-22T13:12:00;99014.31;;;9.31;100.00
58245;BME280;44550;43.864;25.986;2023-12-22T13:16:46;99018.41;;;9.47;100.00
58245;BME280;44550;43.864;25.986;2023-12-22T13:21:04;99014.00;;;9.49;100.00
58245;BME280;44550;43.864;25.986;2023-12-22T13:30:56;99012.47;;;9.37;100.00
58245;BME280;44550;43.864;25.986;2023-12-22T13:35:26;99013.41;;;9.32;100.00
58245;BME280;44550;43.864;25.986;2023-12-22T13:40:10;99021.47;;;9.18;100.00
58245;BME280;44550;43.864;25.986;2023-12-22T13:45:49;99025.88;;;9.14;100.00
58245;BME280;44550;43.864;25.986;2023-12-22T13:50:03;99042.16;;;9.29;100.00
58245;BME280;44550;43.864;25.986;2023-12-22T13:54:32;99046.63;;;9.21;100.00
58245;BME280;44550;43.864;25.986;2023-12-22T13:58:44;99038.81;;;9.19;100.00
58245;BME280;44550;43.864;25.986;2023-12-22T14:03:08;99045.09;;;9.07;100.00
58245;BME280;44550;43.864;25.986;2023-12-22T14:07:54;99049.66;;;8.90;99.39
58245;BME280;44550;43.864;25.986;2023-12-22T14:12:40;99068.59;;;9.04;98.34
58245;BME280;44550;43.864;25.986;2023-12-22T14:17:26;99080.91;;;8.94;97.60
58245;BME280;44550;43.864;25.986;2023-12-22T14:22:08;99074.03;;;8.87;97.12
58245;BME280;44550;43.864;25.986;2023-12-22T14:32:20;99076.72;;;8.80;95.50
58245;BME280;44550;43.864;25.986;2023-12-22T14:37:06;99093.22;;;8.80;95.00
58245;BME280;44550;43.864;25.986;2023-12-22T14:41:42;99096.78;;;8.75;94.73
58245;BME280;44550;43.864;25.986;2023-12-22T14:46:05;99052.78;;;8.50;94.35
58245;BME280;44550;43.864;25.986;2023-12-22T14:50:48;99082.97;;;8.66;93.71
58245;BME280;44550;43.864;25.986;2023-12-22T14:55:07;99116.91;;;8.62;93.19
58245;BME280;44550;43.864;25.986;2023-12-22T14:59:38;99109.28;;;8.45;92.80
58245;BME280;44550;43.864;25.986;2023-12-22T15:03:43;99089.47;;;8.24;91.81
58245;BME280;44550;43.864;25.986;2023-12-22T15:07:52;99151.84;;;8.41;91.88
58245;BME280;44550;43.864;25.986;2023-12-22T15:12:03;99158.81;;;8.42;91.62
58245;BME280;44550;43.864;25.986;2023-12-22T15:16:08;99169.22;;;8.40;91.14
58245;BME280;44550;43.864;25.986;2023-12-22T15:20:29;99184.91;;;8.30;91.63
58245;BME280;44550;43.864;25.986;2023-12-22T15:24:54;99219.69;;;8.21;92.03
58245;BME280;44550;43.864;25.986;2023-12-22T15:29:15;99202.41;;;8.15;91.97
58245;BME280;44550;43.864;25.986;2023-12-22T15:33:36;99222.38;;;8.10;91.44
58245;BME280;44550;43.864;25.986;2023-12-22T15:37:52;99212.00;;;8.07;90.94
58245;BME280;44550;43.864;25.986;2023-12-22T15:42:06;99149.00;;;7.61;91.01
58245;BME280;44550;43.864;25.986;2023-12-22T15:46:19;99217.31;;;7.95;91.59
58245;BME280;44550;43.864;25.986;2023-12-22T15:50:49;99250.28;;;7.93;91.79
58245;BME280;44550;43.864;25.986;2023-12-22T15:55:06;99252.00;;;7.94;91.42
58245;BME280;44550;43.864;25.986;2023-12-22T15:59:16;99260.75;;;7.88;91.02
58245;BME280;44550;43.864;25.986;2023-12-22T16:03:58;99251.25;;;7.80;90.99
58245;BME280;44550;43.864;25.986;2023-12-22T16:08:20;99243.50;;;7.66;91.72
58245;BME280;44550;43.864;25.986;2023-12-22T16:12:30;99226.16;;;7.66;91.90
58245;BME280;44550;43.864;25.986;2023-12-22T16:17:07;99151.94;;;7.07;92.49
58245;BME280;44550;43.864;25.986;2023-12-22T16:21:23;99233.22;;;7.38;93.12
58245;BME280;44550;43.864;25.986;2023-12-22T16:25:36;99219.38;;;7.32;93.73
58245;BME280;44550;43.864;25.986;2023-12-22T16:30:23;99210.72;;;7.37;93.36
58245;BME280;44550;43.864;25.986;2023-12-22T16:34:42;99213.31;;;7.36;93.65
58245;BME280;44550;43.864;25.986;2023-12-22T16:39:18;99155.47;;;6.92;93.14
58245;BME280;44550;43.864;25.986;2023-12-22T16:43:55;99223.75;;;7.28;91.83
58245;BME280;44550;43.864;25.986;2023-12-22T16:48:27;99245.38;;;7.36;91.72
58245;BME280;44550;43.864;25.986;2023-12-22T16:53:09;99226.34;;;7.28;91.68
58245;BME280;44550;43.864;25.986;2023-12-22T16:57:25;99209.94;;;7.20;91.26
58245;BME280;44550;43.864;25.986;2023-12-22T17:01:51;99188.28;;;7.13;91.78
58245;BME280;44550;43.864;25.986;2023-12-22T17:06:31;99184.84;;;7.08;90.67
58245;BME280;44550;43.864;25.986;2023-12-22T17:10:44;99205.63;;;7.05;89.84
58245;BME280;44550;43.864;25.986;2023-12-22T17:14:52;99250.72;;;6.99;89.67
58245;BME280;44550;43.864;25.986;2023-12-22T17:19:44;99258.53;;;6.87;90.07
58245;BME280;44550;43.864;25.986;2023-12-22T17:24:14;99300.09;;;6.87;90.36
58245;BME280;44550;43.864;25.986;2023-12-22T17:28:33;99287.97;;;6.81;89.99
58245;BME280;44550;43.864;25.986;2023-12-22T17:37:30;99284.53;;;6.79;90.00
58245;BME280;44550;43.864;25.986;2023-12-22T17:41:51;99301.84;;;6.65;89.88
58245;BME280;44550;43.864;25.986;2023-12-22T17:46:48;99314.84;;;6.54;90.69
58245;BME280;44550;43.864;25.986;2023-12-22T17:51:21;99322.63;;;6.45;91.28
58245;BME280;44550;43.864;25.986;2023-12-22T17:56:28;99314.84;;;6.44;91.33
58245;BME280;44550;43.864;25.986;2023-12-22T18:01:46;99304.47;;;6.33;91.84
58245;BME280;44550;43.864;25.986;2023-12-22T18:06:54;99311.38;;;6.26;92.20
58245;BME280;44550;43.864;25.986;2023-12-22T18:11:40;99322.63;;;6.19;92.87
58245;BME280;44550;43.864;25.986;2023-12-22T18:16:00;99317.38;;;6.01;93.67
58245;BME280;44550;43.864;25.986;2023-12-22T18:20:08;99334.69;;;6.06;94.25
58245;BME280;44550;43.864;25.986;2023-12-22T18:24:25;99322.50;;;5.90;95.23
58245;BME280;44550;43.864;25.986;2023-12-22T18:28:37;99335.53;;;5.93;95.61
58245;BME280;44550;43.864;25.986;2023-12-22T18:33:21;99333.72;;;5.89;95.75
58245;BME280;44550;43.864;25.986;2023-12-22T18:37:37;99333.72;;;5.84;96.40
58245;BME280;44550;43.864;25.986;2023-12-22T18:42:01;99331.13;;;5.81;96.81
58245;BME280;44550;43.864;25.986;2023-12-22T18:46:09;99319.88;;;5.75;97.47
58245;BME280;44550;43.864;25.986;2023-12-22T18:50:17;99339.72;;;5.67;98.33
58245;BME280;44550;43.864;25.986;2023-12-22T18:54:25;99318.09;;;5.63;98.85
58245;BME280;44550;43.864;25.986;2023-12-22T18:58:30;99318.97;;;5.67;98.61
58245;BME280;44550;43.864;25.986;2023-12-22T19:02:52;99337.16;;;5.77;97.81
58245;BME280;44550;43.864;25.986;2023-12-22T19:07:24;99334.59;;;5.85;97.55
58245;BME280;44550;43.864;25.986;2023-12-22T19:11:34;99333.72;;;5.84;97.69
58245;BME280;44550;43.864;25.986;2023-12-22T19:16:01;99330.25;;;5.81;97.73
58245;BME280;44550;43.864;25.986;2023-12-22T19:20:13;99340.66;;;5.90;97.33
58245;BME280;44550;43.864;25.986;2023-12-22T19:24:25;99259.28;;;5.53;97.14
58245;BME280;44550;43.864;25.986;2023-12-22T19:28:41;99355.41;;;5.94;97.08
58245;BME280;44550;43.864;25.986;2023-12-22T19:32:57;99345.91;;;5.96;96.53
58245;BME280;44550;43.864;25.986;2023-12-22T19:37:03;99354.50;;;5.87;97.21
58245;BME280;44550;43.864;25.986;2023-12-22T19:41:30;99291.22;;;5.42;97.90
58245;BME280;44550;43.864;25.986;2023-12-22T19:45:53;99357.03;;;5.75;96.89
58245;BME280;44550;43.864;25.986;2023-12-22T19:50:10;99374.38;;;5.92;96.35
58245;BME280;44550;43.864;25.986;2023-12-22T19:54:54;99373.56;;;5.93;96.11
58245;BME280;44550;43.864;25.986;2023-12-22T20:04:08;99394.25;;;5.88;96.16
58245;BME280;44550;43.864;25.986;2023-12-22T20:08:28;99319.75;;;5.47;94.84
58245;BME280;44550;43.864;25.986;2023-12-22T20:12:57;99393.38;;;5.86;95.39
58245;BME280;44550;43.864;25.986;2023-12-22T20:17:16;99385.59;;;5.81;95.08
58245;BME280;44550;43.864;25.986;2023-12-22T20:21:42;99379.56;;;5.85;94.74
58245;BME280;44550;43.864;25.986;2023-12-22T20:26:21;99382.13;;;5.81;94.79
58245;BME280;44550;43.864;25.986;2023-12-22T20:30:30;99390.72;;;5.72;95.35
58245;BME280;44550;43.864;25.986;2023-12-22T20:34:34;99375.13;;;5.61;95.79
58245;BME280;44550;43.864;25.986;2023-12-22T20:39:00;99364.75;;;5.58;96.11
58245;BME280;44550;43.864;25.986;2023-12-22T20:43:35;99334.38;;;5.34;96.49
58245;BME280;44550;43.864;25.986;2023-12-22T20:47:43;99356.91;;;5.43;97.21
58245;BME280;44550;43.864;25.986;2023-12-22T20:52:04;99367.22;;;5.34;97.51
58245;BME280;44550;43.864;25.986;2023-12-22T20:56:34;99393.09;;;5.28;97.92
58245;BME280;44550;43.864;25.986;2023-12-22T21:01:20;99388.78;;;5.28;97.73
58245;BME280;44550;43.864;25.986;2023-12-22T21:05:47;99358.31;;;4.95;98.29
58245;BME280;44550;43.864;25.986;2023-12-22T21:10:02;99416.28;;;5.09;99.39
58245;BME280;44550;43.864;25.986;2023-12-22T21:14:18;99417.94;;;5.03;100.00
58245;BME280;44550;43.864;25.986;2023-12-22T21:19:01;99408.41;;;4.94;100.00
58245;BME280;44550;43.864;25.986;2023-12-22T21:23:14;99426.53;;;4.94;100.00
58245;BME280;44550;43.864;25.986;2023-12-22T21:27:54;99422.13;;;4.85;100.00
58245;BME280;44550;43.864;25.986;2023-12-22T21:37:06;99428.09;;;4.75;100.00
58245;BME280;44550;43.864;25.986;2023-12-22T21:41:26;99444.50;;;4.79;100.00
58245;BME280;44550;43.864;25.986;2023-12-22T21:46:00;99446.22;;;4.75;100.00
58245;BME280;44550;43.864;25.986;2023-12-22T21:55:51;99368.72;;;4.07;100.00
58245;BME280;44550;43.864;25.986;2023-12-22T22:00:28;99430.41;;;4.49;100.00
58245;BME280;44550;43.864;25.986;2023-12-22T22:05:00;99451.13;;;4.49;100.00
58245;BME280;44550;43.864;25.986;2023-12-22T22:09:23;99446.91;;;4.57;100.00
58245;BME280;44550;43.864;25.986;2023-12-22T22:14:32;99449.44;;;4.53;100.00
58245;BME280;44550;43.864;25.986;2023-12-22T22:19:20;99448.47;;;4.43;100.00
58245;BME280;44550;43.864;25.986;2023-12-22T22:23:38;99433.84;;;4.46;100.00
58245;BME280;44550;43.864;25.986;2023-12-22T22:27:57;99426.09;;;4.50;100.00
58245;BME280;44550;43.864;25.986;2023-12-22T22:32:19;99387.22;;;4.40;100.00
58245;BME280;44550;43.864;25.986;2023-12-22T22:36:29;99394.97;;;4.40;100.00
58245;BME280;44550;43.864;25.986;2023-12-22T22:40:53;99410.50;;;4.43;100.00
58245;BME280;44550;43.864;25.986;2023-12-22T22:54:32;99385.38;;;4.32;100.00
58245;BME280;44550;43.864;25.986;2023-12-22T22:58:55;99377.66;;;4.36;100.00
58245;BME280;44550;43.864;25.986;2023-12-22T23:03:13;99373.34;;;4.37;100.00
58245;BME280;44550;43.864;25.986;2023-12-22T23:07:19;99385.44;;;4.36;100.00
58245;BME280;44550;43.864;25.986;2023-12-22T23:14:06;99401.78;;;4.32;100.00
58245;BME280;44550;43.864;25.986;2023-12-22T23:16:36;99412.97;;;4.30;100.00
58245;BME280;44550;43.864;25.986;2023-12-22T23:21:13;99402.50;;;4.17;100.00
58245;BME280;44550;43.864;25.986;2023-12-22T23:30:22;99330.63;;;3.89;100.00
58245;BME280;44550;43.864;25.986;2023-12-22T23:34:29;99388.75;;;4.23;100.00
58245;BME280;44550;43.864;25.986;2023-12-22T23:38:40;99378.47;;;4.28;100.00
58245;BME280;44550;43.864;25.986;2023-12-22T23:43:39;99386.25;;;4.32;100.00
58245;BME280;44550;43.864;25.986;2023-12-22T23:47:51;99369.72;;;4.19;100.00
58245;BME280;44550;43.864;25.986;2023-12-22T23:52:23;99420.78;;;4.34;100.00
58245;BME280;44550;43.864;25.986;2023-12-22T23:56:38;99419.06;;;4.35;100.00
